La Paz, Honduras
Current Conditions -  °F | °C
As of 2:00 PM on Tuesday 21 Oct 2014 (Local Time) from MHTG Reporting Station
Scattered Clouds Scattered Clouds  
Wind Chill: 27°   Ceiling: Unl
Heat Index: 28°   Visibility: 6mi
Dew Point: 18°   Wind: 12mph
Humidity: 58%   Direction: 170°S
Pressure: 29.91"   Gusts: NA
Location:  14.2°N, 87.4°W
Report Text: MHTG 212000Z 17010KT 9999 SCT032TCU SCT090 27/18 Q1013 A2991NOSIG
Loading
Personal Weather Stations






























Interactive Weather Map
Tropical Storm Tracking
New forecast layout! Learn more

10-Day Weather Forecast

Advertisements
Track Severe Weather on mobile